Time;durP1;ratioP1;P1;durP2;ratioP2;P2;SDS_P1;SDS_P2;PMS_P1;PMS_P2;Temp;Humidity;BMP_temperature;BMP_pressure;BME280_temperature;BME280_humidity;BME280_pressure;Samples;Min_cycle;Max_cycle;Signal;HPM_P1;HPM_P2
2021/05/15 00:00:23;;;;;;;;;;;13.90;99.90;;;14.18;65.11;100646.56;4824204;29;19925;-70
2021/05/15 00:02:50;;;;;;;;;;;13.90;99.90;;;14.31;64.71;100651.59;4824463;29;19928;-70
2021/05/15 00:05:16;;;;;;;;;;;14.00;99.90;;;14.35;64.59;100652.38;4824458;29;19925;-70
2021/05/15 00:07:43;;;;;;;;;;;14.10;99.90;;;14.15;65.03;100652.81;4824396;29;19925;-70
2021/05/15 00:10:10;;;;;;;;;;;13.90;99.90;;;14.36;65.20;100648.84;4807735;29;19997;-70
2021/05/15 00:12:37;;;;;;;;;;;14.00;99.90;;;14.46;64.40;100650.34;4824200;29;19932;-70
2021/05/15 00:15:06;;;;;;;;;;;14.20;99.90;;;14.15;65.87;100659.94;4826919;29;19924;-69
2021/05/15 00:17:33;;;;;;;;;;;13.90;99.90;;;14.06;65.61;100644.16;4811175;29;19981;-70
2021/05/15 00:20:00;;;;;;;;;;;13.80;99.90;;;14.19;66.45;100645.63;4827398;29;19932;-70
2021/05/15 00:22:26;;;;;;;;;;;13.90;99.90;;;14.06;66.33;100641.50;4811069;29;20349;-70
2021/05/15 00:24:53;;;;;;;;;;;13.80;99.90;;;14.09;65.45;100644.97;4810884;29;20276;-70
2021/05/15 00:27:19;;;;;;;;;;;13.80;99.90;;;14.20;65.25;100648.28;4810945;29;19929;-70
2021/05/15 00:29:47;;;;;;;;;;;13.90;99.90;;;14.17;65.21;100644.78;4826947;29;20357;-70
2021/05/15 00:32:13;;;;;;;;;;;13.90;99.90;;;14.24;64.95;100644.63;4827130;29;19983;-70
2021/05/15 00:34:40;;;;;;;;;;;14.00;99.90;;;13.79;65.24;100565.00;4827313;29;19924;-70
2021/05/15 00:37:07;;;;;;;;;;;13.90;99.90;;;14.19;65.28;100640.31;4827102;29;19925;-70
2021/05/15 00:39:33;;;;;;;;;;;13.90;99.90;;;14.19;65.42;100641.19;4826754;29;19925;-70
2021/05/15 00:42:00;;;;;;;;;;;13.90;99.90;;;14.16;65.68;100632.41;4826992;29;20345;-70
2021/05/15 00:44:42;;;;;;;;;;;13.80;99.90;;;14.02;66.00;100621.19;4810657;29;19925;-69
2021/05/15 00:47:12;;;;;;;;;;;13.70;99.90;;;13.89;65.53;100603.78;4827001;29;19933;-70
2021/05/15 00:49:39;;;;;;;;;;;13.70;99.90;;;14.04;65.77;100628.25;4827163;29;20059;-69
2021/05/15 00:52:05;;;;;;;;;;;13.80;99.90;;;14.08;65.44;100605.09;4826488;29;19925;-69
2021/05/15 00:54:35;;;;;;;;;;;13.90;99.90;;;13.62;65.80;100524.63;4826811;29;19925;-69
2021/05/15 00:57:02;;;;;;;;;;;13.90;99.90;;;14.16;65.72;100611.13;4826706;29;19990;-70
2021/05/15 00:59:28;;;;;;;;;;;13.90;99.90;;;13.36;65.83;100511.91;4826941;29;19977;-70
2021/05/15 01:01:55;;;;;;;;;;;13.80;99.90;;;14.06;66.10;100613.13;4826482;29;19951;-70
2021/05/15 01:04:22;;;;;;;;;;;13.80;99.90;;;14.13;65.79;100616.53;4826500;29;19924;-70
2021/05/15 01:06:49;;;;;;;;;;;13.90;99.90;;;14.00;66.42;100607.94;4826664;29;19928;-71
2021/05/15 01:09:16;;;;;;;;;;;13.80;99.90;;;14.02;66.21;100597.25;4826209;29;19924;-70
2021/05/15 01:11:42;;;;;;;;;;;13.80;99.90;;;13.87;66.59;100595.84;4826594;29;19932;-70
2021/05/15 01:14:09;;;;;;;;;;;13.60;99.90;;;13.96;66.69;100597.41;4826320;29;20291;-70
2021/05/15 01:16:36;;;;;;;;;;;13.70;99.90;;;14.01;66.16;100596.41;4826457;29;19932;-70
2021/05/15 01:19:04;;;;;;;;;;;13.70;99.90;;;14.27;66.08;100587.81;4826436;29;20390;-70
2021/05/15 01:21:31;;;;;;;;;;;13.90;99.90;;;14.21;65.17;100586.16;4809980;29;19960;-70
2021/05/15 01:23:58;;;;;;;;;;;14.00;99.90;;;13.99;66.07;100582.28;4826317;29;19966;-70
2021/05/15 01:26:27;;;;;;;;;;;13.80;99.90;;;13.84;67.14;100573.78;4825310;29;19929;-70
2021/05/15 01:28:55;;;;;;;;;;;13.60;99.90;;;13.77;66.50;100549.09;4826301;29;19924;-70
2021/05/15 01:31:22;;;;;;;;;;;13.70;99.90;;;13.95;66.79;100574.41;4826170;29;20353;-70
2021/05/15 01:33:49;;;;;;;;;;;13.70;99.90;;;13.88;66.22;100570.13;4826437;29;19973;-69
2021/05/15 01:36:15;;;;;;;;;;;13.60;99.90;;;13.77;67.26;100565.03;4826127;29;19981;-70
2021/05/15 01:38:43;;;;;;;;;;;13.50;99.90;;;13.91;67.54;100549.66;4826157;29;19929;-70
2021/05/15 01:41:11;;;;;;;;;;;13.60;99.90;;;14.03;67.12;100541.38;4825582;29;20403;-70
2021/05/15 01:43:38;;;;;;;;;;;13.70;99.90;;;14.09;66.36;100551.88;4826085;29;19946;-70
2021/05/15 01:46:06;;;;;;;;;;;13.80;99.90;;;14.17;66.20;100554.34;4825666;29;19925;-70
2021/05/15 01:48:34;;;;;;;;;;;13.90;99.90;;;13.99;66.08;100546.81;4825735;29;19935;-70
2021/05/15 01:51:01;;;;;;;;;;;13.80;99.90;;;13.80;67.41;100545.50;4826187;29;19924;-70
2021/05/15 01:53:30;;;;;;;;;;;13.60;99.90;;;13.89;67.60;100521.34;4809329;29;20056;-70
2021/05/15 01:56:00;;;;;;;;;;;13.70;99.90;;;13.88;67.12;100519.63;4825842;29;19932;-70
2021/05/15 01:58:26;;;;;;;;;;;13.90;99.90;;;14.13;66.00;100558.03;4825846;29;19932;-70
2021/05/15 02:00:54;;;;;;;;;;;13.90;99.90;;;14.19;65.76;100539.22;4825804;29;19929;-70
2021/05/15 02:03:22;;;;;;;;;;;13.90;99.90;;;14.26;65.56;100524.88;4809243;29;19948;-70
2021/05/15 02:05:48;;;;;;;;;;;14.10;99.90;;;14.32;65.48;100522.09;4825933;29;19924;-70
2021/05/15 02:08:15;;;;;;;;;;;14.10;99.90;;;14.33;64.86;100518.50;4825697;29;19932;-70
2021/05/15 02:10:42;;;;;;;;;;;14.10;99.90;;;14.36;65.13;100513.97;4809232;29;19963;-70
2021/05/15 02:13:09;;;;;;;;;;;14.10;99.90;;;14.33;65.25;100507.88;4825595;29;19966;-70
2021/05/15 02:15:36;;;;;;;;;;;14.10;99.90;;;14.35;64.59;100511.38;4809221;29;19924;-70
2021/05/15 02:18:03;;;;;;;;;;;14.10;99.90;;;14.23;65.16;100493.00;4825506;29;19924;-70
2021/05/15 02:20:30;;;;;;;;;;;14.10;99.90;;;14.38;64.83;100512.16;4825516;29;20050;-70
2021/05/15 02:22:57;;;;;;;;;;;14.10;99.90;;;14.41;64.47;100525.41;4825436;29;19931;-70
2021/05/15 02:25:25;;;;;;;;;;;14.20;99.90;;;14.08;65.31;100504.03;4825340;29;19924;-70
2021/05/15 02:27:51;;;;;;;;;;;14.00;99.90;;;14.13;65.85;100523.44;4825113;29;19935;-70
2021/05/15 02:30:20;;;;;;;;;;;13.90;99.90;;;14.02;66.39;100518.38;4825379;29;19941;-70
2021/05/15 02:32:47;;;;;;;;;;;13.80;99.90;;;13.78;67.05;100502.97;4825642;29;19932;-70
2021/05/15 02:35:14;;;;;;;;;;;13.60;99.90;;;13.94;66.98;100514.13;4825125;29;19929;-70
2021/05/15 02:37:41;;;;;;;;;;;13.60;99.90;;;13.27;67.19;100392.59;4825058;29;19975;-70
2021/05/15 02:40:09;;;;;;;;;;;13.70;99.90;;;14.06;67.59;100503.19;4825508;29;19977;-70
2021/05/15 02:42:36;;;;;;;;;;;13.80;99.90;;;14.04;67.25;100489.06;4825365;29;19929;-70
2021/05/15 02:45:04;;;;;;;;;;;13.80;99.90;;;14.19;66.60;100505.53;4825120;29;19925;-70
2021/05/15 02:47:31;;;;;;;;;;;13.90;99.90;;;13.99;66.44;100505.16;4825344;29;19924;-70
2021/05/15 02:49:58;;;;;;;;;;;13.80;99.90;;;13.92;67.42;100507.97;4825113;29;19928;-70
2021/05/15 02:52:24;;;;;;;;;;;13.60;99.90;;;13.97;66.85;100504.31;4824995;29;20008;-70
2021/05/15 02:54:51;;;;;;;;;;;13.70;99.90;;;14.11;66.09;100504.84;4824859;29;19982;-70
2021/05/15 02:57:17;;;;;;;;;;;13.80;99.90;;;14.16;66.68;100505.63;4825218;29;19975;-70
2021/05/15 02:59:44;;;;;;;;;;;13.90;99.90;;;14.11;66.83;100501.31;4808521;29;19924;-69
2021/05/15 03:02:10;;;;;;;;;;;13.90;99.90;;;14.04;66.52;100502.38;4824767;29;19925;-70
2021/05/15 03:04:38;;;;;;;;;;;13.80;99.90;;;13.96;66.37;100496.34;4824822;29;19945;-69
2021/05/15 03:07:04;;;;;;;;;;;13.70;99.90;;;14.06;66.65;100495.22;4824942;29;19932;-71
2021/05/15 03:09:31;;;;;;;;;;;13.70;99.90;;;14.10;67.31;100496.91;4808358;29;19925;-72
2021/05/15 03:11:57;;;;;;;;;;;13.80;99.90;;;14.09;67.02;100485.38;4824848;29;20292;-71
2021/05/15 03:14:24;;;;;;;;;;;13.90;99.90;;;14.22;66.72;100507.25;4824781;29;19929;-71
2021/05/15 03:16:50;;;;;;;;;;;14.00;99.90;;;14.17;66.42;100485.19;4825015;29;19932;-71
2021/05/15 03:19:17;;;;;;;;;;;14.00;99.90;;;14.19;66.37;100496.66;4824487;29;20375;-71
2021/05/15 03:21:45;;;;;;;;;;;13.90;99.90;;;14.13;65.96;100489.72;4824648;29;19925;-71
2021/05/15 03:24:11;;;;;;;;;;;13.90;99.90;;;14.10;65.87;100488.91;4824670;29;20285;-71
2021/05/15 03:26:38;;;;;;;;;;;13.80;99.90;;;14.02;67.20;100489.13;4824552;29;19989;-71
2021/05/15 03:29:04;;;;;;;;;;;13.70;99.90;;;14.08;66.96;100485.41;4824616;29;20287;-71
2021/05/15 03:31:31;;;;;;;;;;;13.70;99.90;;;14.10;66.83;100481.81;4824618;29;19929;-71
2021/05/15 03:33:57;;;;;;;;;;;13.90;99.90;;;14.16;66.95;100483.44;4824631;29;20024;-71
2021/05/15 03:36:26;;;;;;;;;;;13.90;99.90;;;14.22;66.43;100483.31;4824257;29;19925;-71
2021/05/15 03:38:53;;;;;;;;;;;14.00;99.90;;;14.20;65.94;100478.03;4824529;29;19942;-71
2021/05/15 03:41:20;;;;;;;;;;;14.00;99.90;;;14.22;65.80;100470.00;4824221;29;20402;-71
2021/05/15 03:43:47;;;;;;;;;;;14.00;99.90;;;14.20;65.63;100474.47;4824455;29;19936;-71
2021/05/15 03:46:13;;;;;;;;;;;14.00;99.90;;;14.20;65.39;100474.47;4824384;29;19933;-71
2021/05/15 03:48:40;;;;;;;;;;;13.90;99.90;;;14.18;65.60;100477.19;4824967;29;19929;-71
2021/05/15 03:51:06;;;;;;;;;;;13.90;99.90;;;14.09;65.93;100465.91;4811698;29;19924;-71
2021/05/15 03:53:33;;;;;;;;;;;13.90;99.90;;;14.10;66.24;100473.84;4827507;29;19998;-71
2021/05/15 03:56:00;;;;;;;;;;;13.80;99.90;;;14.08;65.77;100458.81;4827899;29;19952;-71
2021/05/15 03:58:27;;;;;;;;;;;13.80;99.90;;;14.05;66.03;100458.91;4827859;29;19928;-71
2021/05/15 04:00:53;;;;;;;;;;;13.80;99.90;;;14.04;66.16;100452.72;4827754;29;19924;-71
2021/05/15 04:03:20;;;;;;;;;;;13.80;99.90;;;14.07;66.10;100455.28;4827383;29;19928;-71
2021/05/15 04:05:47;;;;;;;;;;;13.80;99.90;;;14.09;65.78;100457.94;4827592;29;19958;-71
2021/05/15 04:08:13;;;;;;;;;;;13.80;99.90;;;14.08;66.08;100453.50;4827775;29;19935;-71
2021/05/15 04:10:40;;;;;;;;;;;13.80;99.90;;;14.07;65.60;100451.78;4811235;29;19935;-71
2021/05/15 04:13:14;;;;;;;;;;;13.70;99.90;;;14.03;65.79;100450.09;4827560;29;19925;-71
2021/05/15 04:15:45;;;;;;;;;;;13.70;99.90;;;14.05;66.22;100451.78;4827522;29;19924;-71
2021/05/15 04:18:13;;;;;;;;;;;13.70;99.90;;;14.00;66.54;100443.06;4811211;29;20291;-71
2021/05/15 04:20:42;;;;;;;;;;;13.80;99.90;;;14.00;66.29;100451.03;4827309;29;20349;-71
2021/05/15 04:23:09;;;;;;;;;;;13.70;99.90;;;13.98;66.41;100444.88;4827268;29;19932;-71
2021/05/15 04:25:36;;;;;;;;;;;13.70;99.90;;;13.98;66.06;100452.00;4827124;29;19931;-71
2021/05/15 04:28:04;;;;;;;;;;;13.70;99.90;;;14.03;66.17;100447.44;4827248;29;19929;-71
2021/05/15 04:30:32;;;;;;;;;;;13.70;99.90;;;14.03;65.89;100448.28;4827168;29;20347;-71
2021/05/15 04:33:00;;;;;;;;;;;13.80;99.90;;;14.05;66.02;100453.59;4827126;29;20344;-71
2021/05/15 04:35:27;;;;;;;;;;;13.80;99.90;;;14.04;66.37;100455.38;4826821;29;19973;-71
2021/05/15 04:37:54;;;;;;;;;;;13.70;99.90;;;14.09;66.52;100452.63;4826824;29;20023;-71
2021/05/15 04:40:20;;;;;;;;;;;13.80;99.90;;;14.09;65.75;100456.13;4827053;29;19935;-71
2021/05/15 04:42:47;;;;;;;;;;;13.80;99.90;;;14.05;65.60;100451.78;4826805;29;19989;-71
2021/05/15 04:45:15;;;;;;;;;;;13.80;99.90;;;14.12;65.94;100450.75;4826956;29;19929;-71
2021/05/15 04:47:42;;;;;;;;;;;13.90;99.90;;;14.15;65.83;100453.31;4810712;29;19929;-71
2021/05/15 04:50:11;;;;;;;;;;;13.90;99.90;;;13.35;65.58;100335.75;4826949;29;19931;-71
2021/05/15 04:52:38;;;;;;;;;;;13.80;99.90;;;14.07;66.21;100444.66;4810619;29;19939;-71
2021/05/15 04:55:05;;;;;;;;;;;13.80;99.90;;;13.97;65.27;100426.31;4810608;29;19925;-71
2021/05/15 04:57:32;;;;;;;;;;;13.80;99.90;;;14.05;65.46;100441.16;4826814;29;20328;-72
2021/05/15 04:59:59;;;;;;;;;;;13.80;99.90;;;14.13;65.51;100438.31;4826667;29;19924;-71
2021/05/15 05:02:25;;;;;;;;;;;13.80;99.90;;;14.05;65.70;100438.50;4826675;29;19925;-71
2021/05/15 05:04:53;;;;;;;;;;;13.80;99.90;;;13.91;65.80;100429.13;4826299;29;20382;-71
2021/05/15 05:07:19;;;;;;;;;;;13.70;99.90;;;14.00;66.84;100434.22;4826676;29;19929;-71
2021/05/15 05:09:46;;;;;;;;;;;13.70;99.90;;;14.08;65.68;100429.56;4810324;29;19925;-71
2021/05/15 05:12:12;;;;;;;;;;;13.80;99.90;;;14.00;65.91;100424.44;4826567;29;19924;-71
2021/05/15 05:14:39;;;;;;;;;;;13.70;99.90;;;13.98;65.91;100426.28;4826540;29;19929;-71
2021/05/15 05:17:05;;;;;;;;;;;13.70;99.90;;;14.05;65.96;100427.00;4826505;29;19924;-71
2021/05/15 05:19:32;;;;;;;;;;;13.80;99.90;;;14.00;65.45;100444.84;4826218;29;20340;-71
2021/05/15 05:22:02;;;;;;;;;;;13.70;99.90;;;14.09;65.76;100418.03;4810099;29;19929;-71
2021/05/15 05:24:29;;;;;;;;;;;13.80;99.90;;;14.17;65.84;100424.00;4826322;29;19928;-71
2021/05/15 05:26:56;;;;;;;;;;;13.90;99.90;;;14.22;65.52;100422.13;4826312;29;19932;-71
2021/05/15 05:29:23;;;;;;;;;;;14.00;99.90;;;14.31;65.46;100429.88;4826331;29;19925;-71
2021/05/15 05:31:52;;;;;;;;;;;14.10;99.90;;;14.29;65.67;100434.38;4826570;29;19985;-71
2021/05/15 05:34:19;;;;;;;;;;;14.00;99.90;;;14.38;65.05;100432.31;4809841;29;19928;-71
2021/05/15 05:36:47;;;;;;;;;;;14.10;99.90;;;14.44;64.56;100428.63;4825957;29;20398;-71
2021/05/15 05:39:17;;;;;;;;;;;14.20;99.90;;;14.52;64.27;100428.44;4826120;29;19925;-71
2021/05/15 05:41:44;;;;;;;;;;;14.30;99.90;;;14.55;63.61;100431.00;4826089;29;20379;-71
2021/05/15 05:44:11;;;;;;;;;;;14.30;99.90;;;14.56;63.32;100430.97;4826099;29;19925;-71
2021/05/15 05:46:37;;;;;;;;;;;14.40;99.90;;;14.53;63.67;100431.06;4826166;29;19928;-71
2021/05/15 05:49:04;;;;;;;;;;;14.30;99.90;;;14.55;63.08;100428.34;4809585;29;19952;-71
2021/05/15 05:51:31;;;;;;;;;;;14.40;99.90;;;14.50;62.76;100433.78;4809567;29;19928;-71
2021/05/15 05:53:57;;;;;;;;;;;14.30;99.90;;;14.41;62.86;100418.06;4825749;29;19968;-71
2021/05/15 05:56:25;;;;;;;;;;;14.30;99.90;;;14.43;62.96;100432.22;4825846;29;19924;-71
2021/05/15 05:58:51;;;;;;;;;;;14.30;99.90;;;14.49;63.32;100434.72;4825483;29;20459;-71
2021/05/15 06:01:18;;;;;;;;;;;14.20;99.90;;;14.41;63.11;100434.94;4825737;29;19925;-71
2021/05/15 06:03:45;;;;;;;;;;;14.20;99.90;;;14.36;63.56;100423.50;4825762;29;19924;-71
2021/05/15 06:06:11;;;;;;;;;;;14.20;99.90;;;14.34;63.56;100421.84;4825820;29;19977;-72
2021/05/15 06:08:38;;;;;;;;;;;14.10;99.90;;;14.47;63.60;100425.91;4825441;29;19924;-71
2021/05/15 06:11:05;;;;;;;;;;;14.20;99.90;;;14.50;63.23;100420.47;4825485;29;19932;-71
2021/05/15 06:13:33;;;;;;;;;;;14.20;99.90;;;14.45;63.28;100423.28;4825496;29;19936;-71
2021/05/15 06:16:00;;;;;;;;;;;14.20;99.90;;;14.52;63.27;100412.47;4809306;29;19928;-71
2021/05/15 06:18:26;;;;;;;;;;;14.30;99.90;;;14.57;62.99;100414.09;4825561;29;19956;-71
2021/05/15 06:20:53;;;;;;;;;;;14.30;99.90;;;14.56;63.21;100415.00;4825562;29;19928;-71
2021/05/15 06:23:19;;;;;;;;;;;14.30;99.90;;;14.56;63.07;100419.44;4825547;29;19928;-71
2021/05/15 06:25:46;;;;;;;;;;;14.30;99.90;;;14.57;63.33;100422.06;4825162;29;19981;-71
2021/05/15 06:28:12;;;;;;;;;;;14.30;99.90;;;14.61;63.22;100423.75;4825305;29;19924;-71
2021/05/15 06:30:40;;;;;;;;;;;14.30;99.90;;;14.56;62.81;100420.31;4808876;29;19924;-71
2021/05/15 06:33:06;;;;;;;;;;;14.30;99.90;;;14.44;62.34;100412.66;4825321;29;19925;-71
2021/05/15 06:35:34;;;;;;;;;;;14.20;99.90;;;14.53;62.88;100417.75;4825667;29;20275;-71
2021/05/15 06:38:00;;;;;;;;;;;14.20;99.90;;;14.48;62.60;100409.88;4808765;29;19929;-71
2021/05/15 06:40:27;;;;;;;;;;;14.20;99.90;;;14.58;62.65;100418.47;4825232;29;19989;-71
2021/05/15 06:42:53;;;;;;;;;;;14.20;99.90;;;14.55;62.56;100413.25;4825120;29;19968;-71
2021/05/15 06:45:20;;;;;;;;;;;14.20;99.90;;;14.59;62.56;100411.38;4825105;29;20320;-71
2021/05/15 06:47:48;;;;;;;;;;;14.30;99.90;;;14.65;62.24;100406.75;4825134;29;19924;-71
2021/05/15 06:50:14;;;;;;;;;;;14.30;99.90;;;14.70;62.12;100401.28;4824823;29;19929;-71
2021/05/15 06:52:41;;;;;;;;;;;14.40;99.90;;;14.74;62.62;100398.50;4824810;29;19979;-71
2021/05/15 06:55:08;;;;;;;;;;;14.50;99.90;;;14.82;62.10;100404.50;4824816;29;20374;-71
2021/05/15 06:57:35;;;;;;;;;;;14.50;99.90;;;14.91;61.81;100398.00;4825004;29;19928;-71
2021/05/15 07:00:01;;;;;;;;;;;14.60;99.90;;;14.96;61.67;100388.94;4824730;29;19929;-71
2021/05/15 07:02:28;;;;;;;;;;;14.70;99.90;;;15.05;61.30;100379.81;4824574;29;19925;-71
2021/05/15 07:04:55;;;;;;;;;;;14.80;99.90;;;15.24;60.68;100392.53;4808416;29;19932;-71
2021/05/15 07:07:22;;;;;;;;;;;15.00;99.90;;;15.27;59.76;100392.44;4808242;29;19933;-71
2021/05/15 07:09:50;;;;;;;;;;;15.00;99.90;;;15.18;59.51;100362.53;4824577;29;20387;-71
2021/05/15 07:12:17;;;;;;;;;;;15.10;99.90;;;15.21;59.00;100367.78;4824778;29;19929;-71
2021/05/15 07:14:44;;;;;;;;;;;15.10;99.90;;;15.53;59.37;100388.09;4808253;29;19925;-71
2021/05/15 07:17:11;;;;;;;;;;;15.30;99.90;;;15.60;59.29;100376.34;4824489;29;19960;-71
2021/05/15 07:19:38;;;;;;;;;;;15.30;99.90;;;15.76;58.59;100369.53;4808229;29;20029;-78
2021/05/15 07:22:05;;;;;;;;;;;15.50;99.90;;;15.87;58.42;100362.94;4825014;29;19925;-75
2021/05/15 07:24:32;;;;;;;;;;;15.70;99.90;;;15.96;58.56;100345.75;4823808;29;19924;-78
2021/05/15 07:26:58;;;;;;;;;;;15.90;99.90;;;16.20;57.55;100368.91;4824562;29;19932;-75
2021/05/15 07:29:25;;;;;;;;;;;16.00;99.90;;;16.28;56.81;100358.81;4824776;29;19924;-75
2021/05/15 07:31:52;;;;;;;;;;;16.10;99.90;;;15.96;56.80;100354.63;4808254;29;20415;-76
2021/05/15 07:34:18;;;;;;;;;;;15.90;99.90;;;15.72;57.51;100349.25;4824636;29;19939;-74
2021/05/15 07:36:45;;;;;;;;;;;15.60;99.90;;;15.75;57.26;100355.38;4824582;29;19925;-75
2021/05/15 07:39:12;;;;;;;;;;;15.50;99.90;;;15.96;57.53;100356.41;4824259;29;19925;-80
2021/05/15 07:41:39;;;;;;;;;;;15.60;99.90;;;16.13;58.14;100357.56;4824457;29;19928;-75
2021/05/15 07:44:07;;;;;;;;;;;15.80;99.90;;;16.20;57.64;100363.59;4824433;29;19925;-77
2021/05/15 07:46:33;;;;;;;;;;;16.00;99.90;;;16.04;58.23;100359.69;4824252;29;20292;-85
2021/05/15 07:49:00;;;;;;;;;;;15.80;99.90;;;16.28;57.17;100359.69;4824239;29;19935;-80
2021/05/15 07:51:27;;;;;;;;;;;16.10;99.90;;;16.02;56.48;100357.09;4824323;29;19978;-79
2021/05/15 07:53:54;;;;;;;;;;;15.80;99.90;;;15.95;56.66;100317.34;4824210;29;19925;-77
2021/05/15 07:56:22;;;;;;;;;;;16.00;99.90;;;16.32;56.50;100355.13;4824288;29;19925;-75
2021/05/15 07:58:49;;;;;;;;;;;16.20;99.90;;;16.49;56.60;100355.41;4824245;29;19925;-79
2021/05/15 08:01:15;;;;;;;;;;;16.30;99.90;;;16.48;55.44;100351.00;4824207;29;19935;-78
2021/05/15 08:03:42;;;;;;;;;;;16.30;99.90;;;16.41;54.31;100352.13;4823888;29;19925;-78
2021/05/15 08:06:09;;;;;;;;;;;16.30;99.90;;;16.23;54.73;100369.69;4823991;29;19925;-77
2021/05/15 08:08:35;;;;;;;;;;;16.10;99.90;;;16.07;56.01;100343.56;4824147;29;19928;-73
2021/05/15 08:11:02;;;;;;;;;;;15.80;99.90;;;15.48;55.55;100340.28;4824139;29;19925;-75
2021/05/15 08:13:30;;;;;;;;;;;15.40;99.90;;;15.00;57.14;100299.19;4824084;29;19981;-80
2021/05/15 08:15:56;;;;;;;;;;;15.00;99.90;;;15.34;56.61;100327.38;4824240;29;20031;-83
2021/05/15 08:18:23;;;;;;;;;;;15.10;99.90;;;15.53;56.94;100329.44;4824955;29;19935;-85
2021/05/15 08:20:50;;;;;;;;;;;15.20;99.90;;;15.79;57.55;100335.69;4824284;29;19925;-85
2021/05/15 08:23:17;;;;;;;;;;;15.50;99.90;;;16.01;55.81;100334.00;4824096;29;20315;-75
2021/05/15 08:25:43;;;;;;;;;;;15.70;99.90;;;15.86;54.59;100337.19;4824026;29;19924;-81
2021/05/15 08:28:13;;;;;;;;;;;15.70;99.90;;;15.91;55.40;100331.72;4824126;29;19925;-81
2021/05/15 08:30:41;;;;;;;;;;;15.70;99.90;;;16.02;54.47;100333.09;4824175;29;19924;-81
2021/05/15 08:33:08;;;;;;;;;;;15.80;99.90;;;15.95;54.28;100336.03;4824031;29;19965;-81
2021/05/15 08:35:35;;;;;;;;;;;15.80;99.90;;;15.84;56.44;100339.03;4825428;29;19928;-82
2021/05/15 08:38:03;;;;;;;;;;;15.60;99.90;;;15.77;55.39;100331.31;4827074;29;19960;-81
2021/05/15 08:40:29;;;;;;;;;;;15.60;99.90;;;15.67;56.93;100309.41;4827103;29;19932;-83
2021/05/15 08:42:57;;;;;;;;;;;15.60;99.90;;;15.85;57.50;100343.44;4826921;29;19932;-83
2021/05/15 08:45:24;;;;;;;;;;;15.70;99.90;;;15.86;56.11;100334.53;4827691;29;19952;-80
2021/05/15 08:47:53;;;;;;;;;;;15.70;99.90;;;15.94;56.56;100327.13;4827571;29;19929;-81
2021/05/15 08:50:21;;;;;;;;;;;15.80;99.90;;;15.89;56.48;100301.56;4827251;29;19931;-81
2021/05/15 08:52:50;;;;;;;;;;;15.80;99.90;;;16.08;55.81;100318.66;4826773;29;19925;-83
2021/05/15 08:55:19;;;;;;;;;;;15.80;99.90;;;16.11;56.23;100315.84;4827150;29;19982;-82
2021/05/15 08:57:46;;;;;;;;;;;15.90;99.90;;;16.26;56.45;100317.97;4826911;29;19925;-83
2021/05/15 09:00:16;;;;;;;;;;;16.00;99.90;;;16.22;55.74;100309.22;4826809;29;19924;-83
2021/05/15 09:02:44;;;;;;;;;;;16.00;99.90;;;16.17;56.50;100300.50;4826900;29;19925;-82
2021/05/15 09:05:14;;;;;;;;;;;16.00;99.90;;;16.35;55.57;100303.44;4826680;29;20406;-83
2021/05/15 09:07:48;;;;;;;;;;;16.10;99.90;;;16.25;56.84;100310.91;4826422;29;19967;-82
2021/05/15 09:10:18;;;;;;;;;;;16.00;99.90;;;15.77;56.42;100253.97;4826765;29;19925;-78
2021/05/15 09:13:05;;;;;;;;;;;15.90;99.90;;;16.07;56.14;100311.56;4828636;29;20344;-72
2021/05/15 09:15:36;;;;;;;;;;;15.80;99.90;;;15.98;56.98;100309.22;4827556;29;19931;-76
2021/05/15 09:18:04;;;;;;;;;;;15.80;99.90;;;15.99;57.36;100305.63;4810052;29;19925;-77
2021/05/15 09:20:35;;;;;;;;;;;15.70;99.90;;;15.94;57.06;100302.25;4826441;29;19925;-76
2021/05/15 09:23:18;;;;;;;;;;;15.70;99.90;;;15.94;58.27;100289.78;4810358;29;19946;-77
2021/05/15 09:25:56;;;;;;;;;;;15.70;99.90;;;15.73;57.99;100287.88;4810027;29;20026;-78
2021/05/15 09:28:38;;;;;;;;;;;15.60;99.90;;;15.73;58.36;100292.34;4826359;29;20016;-77
2021/05/15 09:31:15;;;;;;;;;;;15.50;99.90;;;15.56;58.12;100278.72;4809883;29;19935;-70
2021/05/15 09:33:44;;;;;;;;;;;15.40;99.90;;;15.68;57.94;100279.16;4826147;29;20050;-69
2021/05/15 09:36:23;;;;;;;;;;;15.50;99.90;;;15.78;58.57;100285.03;4826071;29;20015;-73
2021/05/15 09:39:01;;;;;;;;;;;15.60;99.90;;;15.84;59.18;100279.50;4826141;29;19924;-76
2021/05/15 09:41:33;;;;;;;;;;;15.50;99.90;;;15.91;58.89;100273.03;4826066;29;19932;-69
2021/05/15 09:44:01;;;;;;;;;;;15.70;99.90;;;15.92;60.15;100280.09;4809782;29;19928;-73
2021/05/15 09:46:30;;;;;;;;;;;15.70;99.90;;;15.63;60.73;100259.78;4824905;29;19924;-66
2021/05/15 09:48:58;;;;;;;;;;;15.50;99.90;;;15.65;60.97;100275.72;4809772;29;19928;-60
2021/05/15 09:51:26;;;;;;;;;;;15.50;99.90;;;15.27;61.31;100269.84;4825832;29;19924;-60
2021/05/15 09:53:54;;;;;;;;;;;15.30;99.90;;;15.19;62.38;100269.22;4825584;29;19931;-63
2021/05/15 09:56:27;;;;;;;;;;;15.10;99.90;;;15.20;62.94;100263.00;4825510;29;19974;-62
2021/05/15 09:58:56;;;;;;;;;;;15.00;99.90;;;15.36;63.41;100258.91;4825849;29;19924;-65
2021/05/15 10:01:24;;;;;;;;;;;15.10;99.90;;;15.40;62.08;100254.34;4825812;29;19936;-65
2021/05/15 10:03:59;;;;;;;;;;;15.20;99.90;;;15.39;61.81;100244.59;4825732;29;19925;-61
2021/05/15 10:06:27;;;;;;;;;;;15.30;99.90;;;15.41;61.10;100257.88;4825907;29;19924;-62
2021/05/15 10:08:55;;;;;;;;;;;15.30;99.90;;;15.43;62.21;100246.25;4825657;29;20375;-62
2021/05/15 10:11:25;;;;;;;;;;;15.30;99.90;;;15.42;61.86;100239.22;4809304;29;19925;-63
2021/05/15 10:13:52;;;;;;;;;;;15.30;99.90;;;15.55;62.92;100244.97;4825268;29;20337;-65
2021/05/15 10:16:20;;;;;;;;;;;15.30;99.90;;;15.53;62.60;100247.69;4808795;29;19924;-67
2021/05/15 10:18:49;;;;;;;;;;;15.40;99.90;;;15.35;62.69;100242.94;4825782;29;19931;-66
2021/05/15 10:21:17;;;;;;;;;;;15.30;99.90;;;15.46;62.60;100238.19;4809041;29;19924;-63
2021/05/15 10:23:46;;;;;;;;;;;15.30;99.90;;;15.09;63.80;100238.50;4825457;29;20011;-65
2021/05/15 10:26:17;;;;;;;;;;;15.10;99.90;;;14.90;63.77;100233.81;4825201;29;20382;-64
2021/05/15 10:28:58;;;;;;;;;;;14.80;99.90;;;14.51;65.30;100225.31;4825169;29;19935;-81
2021/05/15 10:31:36;;;;;;;;;;;14.40;99.90;;;14.53;65.74;100235.91;4825624;29;19963;-82
2021/05/15 10:34:04;;;;;;;;;;;14.40;99.90;;;14.56;66.39;100218.03;4825523;29;19925;-81
2021/05/15 10:36:43;;;;;;;;;;;14.40;99.90;;;14.13;67.17;100222.88;4825356;29;19924;-78
2021/05/15 10:39:12;;;;;;;;;;;14.10;99.90;;;13.96;66.75;100214.50;4825034;29;19924;-73
2021/05/15 10:41:46;;;;;;;;;;;13.80;99.90;;;13.87;66.43;100201.47;4825185;29;19925;-73
2021/05/15 10:44:14;;;;;;;;;;;13.80;99.90;;;13.97;67.47;100202.97;4825025;29;19932;-73
2021/05/15 10:46:46;;;;;;;;;;;13.70;99.90;;;14.06;68.38;100202.69;4824920;29;19928;-74
2021/05/15 10:49:22;;;;;;;;;;;13.80;99.90;;;13.89;68.91;100210.28;4825373;29;19977;-73
2021/05/15 10:51:51;;;;;;;;;;;13.70;99.90;;;13.92;70.26;100195.13;4825395;29;19931;-72
2021/05/15 10:54:31;;;;;;;;;;;13.60;99.90;;;13.93;69.16;100215.50;4805224;29;19970;-73
2021/05/15 10:57:04;;;;;;;;;;;13.60;99.90;;;14.09;68.03;100184.84;4806742;29;19933;-72
2021/05/15 10:59:32;;;;;;;;;;;13.90;99.90;;;14.36;67.57;100188.53;4805451;29;19932;-71
2021/05/15 11:02:01;;;;;;;;;;;14.10;99.90;;;14.32;67.71;100208.16;4806628;29;19925;-71
2021/05/15 11:04:31;;;;;;;;;;;14.20;99.90;;;14.02;69.33;100195.72;4806720;29;19925;-72
2021/05/15 11:07:09;;;;;;;;;;;13.90;99.90;;;14.00;70.85;100201.09;4806535;29;19925;-74
2021/05/15 11:10:01;;;;;;;;;;;13.90;99.90;;;13.96;71.68;100182.59;4805224;29;19958;-73
2021/05/15 11:12:30;;;;;;;;;;;13.70;99.90;;;13.80;72.01;100160.06;4805108;29;19925;-74